sensor_id;sensor_type;location;lat;lon;timestamp;P1;durP1;ratioP1;P2;durP2;ratioP2
69736;SDS011;64476;55.004;73.342;2023-08-20T00:01:26;5.18;;;4.43;;
69736;SDS011;64476;55.004;73.342;2023-08-20T00:04:29;5.40;;;4.38;;
69736;SDS011;64476;55.004;73.342;2023-08-20T00:07:32;14.65;;;4.35;;
69736;SDS011;64476;55.004;73.342;2023-08-20T00:10:35;4.97;;;4.43;;
69736;SDS011;64476;55.004;73.342;2023-08-20T00:13:37;5.13;;;4.57;;
69736;SDS011;64476;55.004;73.342;2023-08-20T00:16:39;10.48;;;4.63;;
69736;SDS011;64476;55.004;73.342;2023-08-20T00:19:41;5.13;;;4.63;;
69736;SDS011;64476;55.004;73.342;2023-08-20T00:22:47;11.13;;;4.68;;
69736;SDS011;64476;55.004;73.342;2023-08-20T00:25:50;10.10;;;5.00;;
69736;SDS011;64476;55.004;73.342;2023-08-20T00:28:52;5.25;;;4.20;;
69736;SDS011;64476;55.004;73.342;2023-08-20T00:31:54;5.95;;;3.92;;
69736;SDS011;64476;55.004;73.342;2023-08-20T00:34:55;7.32;;;4.00;;
69736;SDS011;64476;55.004;73.342;2023-08-20T00:37:57;4.40;;;4.00;;
69736;SDS011;64476;55.004;73.342;2023-08-20T00:40:59;12.85;;;4.10;;
69736;SDS011;64476;55.004;73.342;2023-08-20T00:44:04;5.93;;;3.88;;
69736;SDS011;64476;55.004;73.342;2023-08-20T00:47:07;8.68;;;4.28;;
69736;SDS011;64476;55.004;73.342;2023-08-20T00:50:09;5.43;;;4.07;;
69736;SDS011;64476;55.004;73.342;2023-08-20T00:53:12;5.57;;;3.90;;
69736;SDS011;64476;55.004;73.342;2023-08-20T00:56:16;4.60;;;3.70;;
69736;SDS011;64476;55.004;73.342;2023-08-20T00:59:18;4.23;;;3.83;;
69736;SDS011;64476;55.004;73.342;2023-08-20T01:02:20;8.73;;;3.90;;
69736;SDS011;64476;55.004;73.342;2023-08-20T01:05:22;7.60;;;4.15;;
69736;SDS011;64476;55.004;73.342;2023-08-20T01:08:58;6.32;;;4.40;;
69736;SDS011;64476;55.004;73.342;2023-08-20T01:12:31;5.55;;;3.58;;
69736;SDS011;64476;55.004;73.342;2023-08-20T01:15:36;18.58;;;4.10;;
69736;SDS011;64476;55.004;73.342;2023-08-20T01:18:39;4.47;;;3.65;;
69736;SDS011;64476;55.004;73.342;2023-08-20T01:25:24;5.97;;;3.73;;
69736;SDS011;64476;55.004;73.342;2023-08-20T01:28:42;18.35;;;4.15;;
69736;SDS011;64476;55.004;73.342;2023-08-20T01:35:19;7.60;;;3.33;;
69736;SDS011;64476;55.004;73.342;2023-08-20T01:38:52;13.52;;;3.67;;
69736;SDS011;64476;55.004;73.342;2023-08-20T01:41:54;4.28;;;3.70;;
69736;SDS011;64476;55.004;73.342;2023-08-20T01:44:58;9.57;;;3.72;;
69736;SDS011;64476;55.004;73.342;2023-08-20T01:48:00;16.02;;;3.95;;
69736;SDS011;64476;55.004;73.342;2023-08-20T01:51:02;10.38;;;3.42;;
69736;SDS011;64476;55.004;73.342;2023-08-20T01:54:04;6.70;;;6.00;;
69736;SDS011;64476;55.004;73.342;2023-08-20T01:57:05;7.43;;;3.75;;
69736;SDS011;64476;55.004;73.342;2023-08-20T02:03:41;6.55;;;4.40;;
69736;SDS011;64476;55.004;73.342;2023-08-20T02:07:15;4.70;;;3.90;;
69736;SDS011;64476;55.004;73.342;2023-08-20T02:10:17;7.47;;;3.15;;
69736;SDS011;64476;55.004;73.342;2023-08-20T02:13:25;11.30;;;3.65;;
69736;SDS011;64476;55.004;73.342;2023-08-20T02:16:27;12.55;;;4.18;;
69736;SDS011;64476;55.004;73.342;2023-08-20T02:19:29;16.90;;;3.70;;
69736;SDS011;64476;55.004;73.342;2023-08-20T02:22:31;4.50;;;3.40;;
69736;SDS011;64476;55.004;73.342;2023-08-20T02:25:35;7.38;;;3.53;;
69736;SDS011;64476;55.004;73.342;2023-08-20T02:28:37;4.88;;;3.60;;
69736;SDS011;64476;55.004;73.342;2023-08-20T02:31:39;11.07;;;3.95;;
69736;SDS011;64476;55.004;73.342;2023-08-20T02:35:13;7.43;;;3.33;;
69736;SDS011;64476;55.004;73.342;2023-08-20T02:38:25;7.57;;;3.97;;
69736;SDS011;64476;55.004;73.342;2023-08-20T02:41:27;11.68;;;3.67;;
69736;SDS011;64476;55.004;73.342;2023-08-20T02:44:29;8.35;;;3.40;;
69736;SDS011;64476;55.004;73.342;2023-08-20T02:47:31;11.98;;;3.70;;
69736;SDS011;64476;55.004;73.342;2023-08-20T02:50:33;12.57;;;3.42;;
69736;SDS011;64476;55.004;73.342;2023-08-20T02:53:35;5.65;;;3.50;;
69736;SDS011;64476;55.004;73.342;2023-08-20T02:56:36;11.02;;;4.00;;
69736;SDS011;64476;55.004;73.342;2023-08-20T02:59:41;7.68;;;3.33;;
69736;SDS011;64476;55.004;73.342;2023-08-20T03:05:51;4.20;;;3.38;;
69736;SDS011;64476;55.004;73.342;2023-08-20T03:08:52;14.57;;;3.70;;
69736;SDS011;64476;55.004;73.342;2023-08-20T03:11:55;18.42;;;4.10;;
69736;SDS011;64476;55.004;73.342;2023-08-20T03:14:56;6.35;;;3.60;;
69736;SDS011;64476;55.004;73.342;2023-08-20T03:17:59;5.72;;;3.10;;
69736;SDS011;64476;55.004;73.342;2023-08-20T03:21:02;8.17;;;3.50;;
69736;SDS011;64476;55.004;73.342;2023-08-20T03:24:07;7.55;;;3.85;;
69736;SDS011;64476;55.004;73.342;2023-08-20T03:27:41;7.15;;;3.17;;
69736;SDS011;64476;55.004;73.342;2023-08-20T03:31:15;5.32;;;3.20;;
69736;SDS011;64476;55.004;73.342;2023-08-20T03:34:18;3.80;;;2.83;;
69736;SDS011;64476;55.004;73.342;2023-08-20T03:37:23;8.70;;;3.10;;
69736;SDS011;64476;55.004;73.342;2023-08-20T03:40:24;20.70;;;3.53;;
69736;SDS011;64476;55.004;73.342;2023-08-20T03:43:26;10.30;;;3.10;;
69736;SDS011;64476;55.004;73.342;2023-08-20T03:46:28;5.90;;;3.10;;
69736;SDS011;64476;55.004;73.342;2023-08-20T03:49:29;10.50;;;3.53;;
69736;SDS011;64476;55.004;73.342;2023-08-20T03:52:31;11.65;;;3.15;;
69736;SDS011;64476;55.004;73.342;2023-08-20T03:55:33;4.10;;;2.80;;
69736;SDS011;64476;55.004;73.342;2023-08-20T03:58:34;6.13;;;2.80;;
69736;SDS011;64476;55.004;73.342;2023-08-20T04:01:36;11.18;;;3.03;;
69736;SDS011;64476;55.004;73.342;2023-08-20T04:04:38;18.02;;;3.33;;
69736;SDS011;64476;55.004;73.342;2023-08-20T04:08:23;17.44;;;4.18;;
69736;SDS011;64476;55.004;73.342;2023-08-20T04:11:25;7.78;;;3.50;;
69736;SDS011;64476;55.004;73.342;2023-08-20T04:14:27;12.75;;;3.40;;
69736;SDS011;64476;55.004;73.342;2023-08-20T04:17:28;4.95;;;2.80;;
69736;SDS011;64476;55.004;73.342;2023-08-20T04:20:30;16.05;;;3.10;;
69736;SDS011;64476;55.004;73.342;2023-08-20T04:23:33;5.60;;;2.78;;
69736;SDS011;64476;55.004;73.342;2023-08-20T04:26:35;3.38;;;2.95;;
69736;SDS011;64476;55.004;73.342;2023-08-20T04:29:36;9.57;;;3.13;;
69736;SDS011;64476;55.004;73.342;2023-08-20T04:32:38;9.27;;;3.08;;
69736;SDS011;64476;55.004;73.342;2023-08-20T04:35:40;7.03;;;3.33;;
69736;SDS011;64476;55.004;73.342;2023-08-20T04:39:15;15.50;;;4.22;;
69736;SDS011;64476;55.004;73.342;2023-08-20T04:42:53;9.15;;;4.22;;
69736;SDS011;64476;55.004;73.342;2023-08-20T04:45:55;10.98;;;3.50;;
69736;SDS011;64476;55.004;73.342;2023-08-20T04:49:01;4.60;;;3.38;;
69736;SDS011;64476;55.004;73.342;2023-08-20T04:52:02;18.60;;;3.40;;
69736;SDS011;64476;55.004;73.342;2023-08-20T04:55:05;8.73;;;3.05;;
69736;SDS011;64476;55.004;73.342;2023-08-20T04:58:09;12.15;;;3.42;;
69736;SDS011;64476;55.004;73.342;2023-08-20T05:01:14;7.13;;;2.55;;
69736;SDS011;64476;55.004;73.342;2023-08-20T05:04:17;4.00;;;2.90;;
69736;SDS011;64476;55.004;73.342;2023-08-20T05:07:18;9.50;;;3.35;;
69736;SDS011;64476;55.004;73.342;2023-08-20T05:10:20;9.70;;;2.78;;
69736;SDS011;64476;55.004;73.342;2023-08-20T05:16:26;13.40;;;3.20;;
69736;SDS011;64476;55.004;73.342;2023-08-20T05:22:34;16.80;;;3.40;;
69736;SDS011;64476;55.004;73.342;2023-08-20T05:25:35;5.43;;;2.88;;
69736;SDS011;64476;55.004;73.342;2023-08-20T05:28:37;19.23;;;2.60;;
69736;SDS011;64476;55.004;73.342;2023-08-20T05:31:40;28.50;;;4.28;;
69736;SDS011;64476;55.004;73.342;2023-08-20T05:34:42;13.65;;;2.72;;
69736;SDS011;64476;55.004;73.342;2023-08-20T05:37:52;11.65;;;2.50;;
69736;SDS011;64476;55.004;73.342;2023-08-20T05:40:55;5.88;;;2.92;;
69736;SDS011;64476;55.004;73.342;2023-08-20T05:43:59;3.00;;;2.35;;
69736;SDS011;64476;55.004;73.342;2023-08-20T05:47:01;7.25;;;2.60;;
69736;SDS011;64476;55.004;73.342;2023-08-20T05:50:03;3.00;;;2.47;;
69736;SDS011;64476;55.004;73.342;2023-08-20T05:53:05;9.45;;;3.05;;
69736;SDS011;64476;55.004;73.342;2023-08-20T05:56:07;8.18;;;3.45;;
69736;SDS011;64476;55.004;73.342;2023-08-20T06:02:43;4.07;;;2.50;;
69736;SDS011;64476;55.004;73.342;2023-08-20T06:09:17;4.97;;;3.03;;
69736;SDS011;64476;55.004;73.342;2023-08-20T06:12:23;9.05;;;2.58;;
69736;SDS011;64476;55.004;73.342;2023-08-20T06:15:26;4.33;;;2.30;;
69736;SDS011;64476;55.004;73.342;2023-08-20T06:18:28;2.57;;;2.37;;
69736;SDS011;64476;55.004;73.342;2023-08-20T06:21:30;10.10;;;2.45;;
69736;SDS011;64476;55.004;73.342;2023-08-20T06:24:31;9.98;;;2.72;;
69736;SDS011;64476;55.004;73.342;2023-08-20T06:27:33;9.25;;;2.20;;
69736;SDS011;64476;55.004;73.342;2023-08-20T06:30:35;15.77;;;3.20;;
69736;SDS011;64476;55.004;73.342;2023-08-20T06:33:40;7.20;;;2.28;;
69736;SDS011;64476;55.004;73.342;2023-08-20T06:36:42;8.55;;;2.45;;
69736;SDS011;64476;55.004;73.342;2023-08-20T06:39:44;5.65;;;2.20;;
69736;SDS011;64476;55.004;73.342;2023-08-20T06:42:46;7.75;;;2.40;;
69736;SDS011;64476;55.004;73.342;2023-08-20T06:45:47;5.33;;;2.20;;
69736;SDS011;64476;55.004;73.342;2023-08-20T06:48:50;5.88;;;1.98;;
69736;SDS011;64476;55.004;73.342;2023-08-20T06:51:51;7.63;;;2.28;;
69736;SDS011;64476;55.004;73.342;2023-08-20T06:54:53;7.22;;;3.20;;
69736;SDS011;64476;55.004;73.342;2023-08-20T06:58:27;6.10;;;3.36;;
69736;SDS011;64476;55.004;73.342;2023-08-20T07:01:28;4.10;;;2.20;;
69736;SDS011;64476;55.004;73.342;2023-08-20T07:04:38;7.40;;;2.30;;
69736;SDS011;64476;55.004;73.342;2023-08-20T07:07:40;13.25;;;2.78;;
69736;SDS011;64476;55.004;73.342;2023-08-20T07:10:42;11.80;;;2.83;;
69736;SDS011;64476;55.004;73.342;2023-08-20T07:13:44;10.13;;;2.30;;
69736;SDS011;64476;55.004;73.342;2023-08-20T07:16:45;13.50;;;3.25;;
69736;SDS011;64476;55.004;73.342;2023-08-20T07:19:47;6.82;;;3.45;;
69736;SDS011;64476;55.004;73.342;2023-08-20T07:26:26;6.82;;;2.80;;
69736;SDS011;64476;55.004;73.342;2023-08-20T07:29:28;8.88;;;2.53;;
69736;SDS011;64476;55.004;73.342;2023-08-20T07:32:32;3.30;;;2.35;;
69736;SDS011;64476;55.004;73.342;2023-08-20T07:36:09;12.63;;;2.87;;
69736;SDS011;64476;55.004;73.342;2023-08-20T07:39:11;4.88;;;2.30;;
69736;SDS011;64476;55.004;73.342;2023-08-20T07:42:13;6.25;;;2.38;;
69736;SDS011;64476;55.004;73.342;2023-08-20T07:45:14;13.70;;;2.60;;
69736;SDS011;64476;55.004;73.342;2023-08-20T07:48:22;8.76;;;2.24;;
69736;SDS011;64476;55.004;73.342;2023-08-20T07:51:24;6.50;;;2.55;;
69736;SDS011;64476;55.004;73.342;2023-08-20T07:54:26;6.95;;;2.03;;
69736;SDS011;64476;55.004;73.342;2023-08-20T07:57:29;6.95;;;2.30;;
69736;SDS011;64476;55.004;73.342;2023-08-20T08:00:34;8.83;;;2.30;;
69736;SDS011;64476;55.004;73.342;2023-08-20T08:03:36;7.05;;;2.53;;
69736;SDS011;64476;55.004;73.342;2023-08-20T08:06:38;9.70;;;2.08;;
69736;SDS011;64476;55.004;73.342;2023-08-20T08:09:39;2.53;;;2.25;;
69736;SDS011;64476;55.004;73.342;2023-08-20T08:12:41;3.85;;;1.92;;
69736;SDS011;64476;55.004;73.342;2023-08-20T08:15:43;3.03;;;2.03;;
69736;SDS011;64476;55.004;73.342;2023-08-20T08:18:44;3.43;;;1.80;;
69736;SDS011;64476;55.004;73.342;2023-08-20T08:21:49;5.38;;;2.00;;
69736;SDS011;64476;55.004;73.342;2023-08-20T08:24:51;5.60;;;2.72;;
69736;SDS011;64476;55.004;73.342;2023-08-20T08:27:52;10.50;;;2.85;;
69736;SDS011;64476;55.004;73.342;2023-08-20T08:30:54;13.10;;;2.30;;
69736;SDS011;64476;55.004;73.342;2023-08-20T08:33:56;10.18;;;2.75;;
69736;SDS011;64476;55.004;73.342;2023-08-20T08:36:57;4.22;;;2.38;;
69736;SDS011;64476;55.004;73.342;2023-08-20T08:39:59;9.82;;;2.28;;
69736;SDS011;64476;55.004;73.342;2023-08-20T08:43:01;3.75;;;1.98;;
69736;SDS011;64476;55.004;73.342;2023-08-20T08:46:05;11.77;;;2.53;;
69736;SDS011;64476;55.004;73.342;2023-08-20T08:49:08;6.60;;;1.80;;
69736;SDS011;64476;55.004;73.342;2023-08-20T08:52:10;12.02;;;3.72;;
69736;SDS011;64476;55.004;73.342;2023-08-20T08:55:13;10.63;;;2.20;;
69736;SDS011;64476;55.004;73.342;2023-08-20T08:58:47;5.35;;;2.67;;
69736;SDS011;64476;55.004;73.342;2023-08-20T09:02:20;12.45;;;2.78;;
69736;SDS011;64476;55.004;73.342;2023-08-20T09:05:24;3.95;;;2.33;;
69736;SDS011;64476;55.004;73.342;2023-08-20T09:08:26;5.58;;;2.05;;
69736;SDS011;64476;55.004;73.342;2023-08-20T09:11:36;8.60;;;2.38;;
69736;SDS011;64476;55.004;73.342;2023-08-20T09:14:38;5.30;;;2.50;;
69736;SDS011;64476;55.004;73.342;2023-08-20T09:17:43;4.45;;;2.20;;
69736;SDS011;64476;55.004;73.342;2023-08-20T09:20:44;6.95;;;3.10;;
69736;SDS011;64476;55.004;73.342;2023-08-20T09:24:25;2.83;;;2.00;;
69736;SDS011;64476;55.004;73.342;2023-08-20T09:28:03;3.63;;;2.00;;
69736;SDS011;64476;55.004;73.342;2023-08-20T09:31:08;5.05;;;1.80;;
69736;SDS011;64476;55.004;73.342;2023-08-20T09:34:12;2.77;;;1.73;;
69736;SDS011;64476;55.004;73.342;2023-08-20T09:37:17;7.43;;;2.00;;
69736;SDS011;64476;55.004;73.342;2023-08-20T09:40:20;3.45;;;2.15;;
69736;SDS011;64476;55.004;73.342;2023-08-20T09:43:25;8.98;;;1.80;;
69736;SDS011;64476;55.004;73.342;2023-08-20T09:46:32;13.13;;;1.92;;
69736;SDS011;64476;55.004;73.342;2023-08-20T09:56:29;9.00;;;2.35;;
69736;SDS011;64476;55.004;73.342;2023-08-20T09:59:32;11.27;;;2.20;;
69736;SDS011;64476;55.004;73.342;2023-08-20T10:02:37;6.80;;;2.58;;
69736;SDS011;64476;55.004;73.342;2023-08-20T10:05:39;4.80;;;2.50;;
69736;SDS011;64476;55.004;73.342;2023-08-20T10:08:41;5.00;;;2.57;;
69736;SDS011;64476;55.004;73.342;2023-08-20T10:11:46;3.97;;;2.45;;
69736;SDS011;64476;55.004;73.342;2023-08-20T10:14:48;6.22;;;2.42;;
69736;SDS011;64476;55.004;73.342;2023-08-20T10:17:50;12.05;;;2.53;;
69736;SDS011;64476;55.004;73.342;2023-08-20T10:20:52;5.53;;;1.87;;
69736;SDS011;64476;55.004;73.342;2023-08-20T10:23:54;4.78;;;1.95;;
69736;SDS011;64476;55.004;73.342;2023-08-20T10:30:34;12.40;;;1.90;;
69736;SDS011;64476;55.004;73.342;2023-08-20T10:33:48;5.33;;;1.60;;
69736;SDS011;64476;55.004;73.342;2023-08-20T10:36:51;6.47;;;2.13;;
69736;SDS011;64476;55.004;73.342;2023-08-20T10:39:55;10.80;;;2.77;;
69736;SDS011;64476;55.004;73.342;2023-08-20T10:43:01;2.55;;;1.83;;
69736;SDS011;64476;55.004;73.342;2023-08-20T10:46:34;1.90;;;1.80;;
69736;SDS011;64476;55.004;73.342;2023-08-20T10:50:17;3.40;;;1.70;;
69736;SDS011;64476;55.004;73.342;2023-08-20T10:53:22;2.05;;;1.70;;
69736;SDS011;64476;55.004;73.342;2023-08-20T10:56:24;7.43;;;1.58;;
69736;SDS011;64476;55.004;73.342;2023-08-20T10:59:41;11.52;;;2.00;;
69736;SDS011;64476;55.004;73.342;2023-08-20T11:02:42;9.63;;;1.63;;
69736;SDS011;64476;55.004;73.342;2023-08-20T11:05:45;2.97;;;1.50;;
69736;SDS011;64476;55.004;73.342;2023-08-20T11:08:51;8.23;;;1.80;;
69736;SDS011;64476;55.004;73.342;2023-08-20T11:11:53;1.88;;;1.50;;
69736;SDS011;64476;55.004;73.342;2023-08-20T11:14:59;9.23;;;1.80;;
69736;SDS011;64476;55.004;73.342;2023-08-20T11:18:34;25.52;;;1.70;;
69736;SDS011;64476;55.004;73.342;2023-08-20T11:21:40;29.80;;;2.40;;
69736;SDS011;64476;55.004;73.342;2023-08-20T11:24:43;16.70;;;1.83;;
69736;SDS011;64476;55.004;73.342;2023-08-20T11:27:45;3.90;;;1.88;;
69736;SDS011;64476;55.004;73.342;2023-08-20T11:30:47;4.30;;;1.33;;
69736;SDS011;64476;55.004;73.342;2023-08-20T11:33:49;7.43;;;1.60;;
69736;SDS011;64476;55.004;73.342;2023-08-20T11:36:51;2.78;;;1.42;;
69736;SDS011;64476;55.004;73.342;2023-08-20T11:39:53;4.47;;;1.52;;
69736;SDS011;64476;55.004;73.342;2023-08-20T11:43:31;6.37;;;1.63;;
69736;SDS011;64476;55.004;73.342;2023-08-20T11:46:43;6.30;;;1.73;;
69736;SDS011;64476;55.004;73.342;2023-08-20T11:49:45;8.55;;;1.77;;
69736;SDS011;64476;55.004;73.342;2023-08-20T11:52:47;8.90;;;1.58;;
69736;SDS011;64476;55.004;73.342;2023-08-20T11:55:49;4.57;;;1.30;;
69736;SDS011;64476;55.004;73.342;2023-08-20T11:58:58;15.40;;;1.95;;
69736;SDS011;64476;55.004;73.342;2023-08-20T12:02:31;11.88;;;2.15;;
69736;SDS011;64476;55.004;73.342;2023-08-20T12:05:40;5.10;;;1.50;;
69736;SDS011;64476;55.004;73.342;2023-08-20T12:08:43;4.47;;;1.70;;
69736;SDS011;64476;55.004;73.342;2023-08-20T12:11:51;8.50;;;2.40;;
69736;SDS011;64476;55.004;73.342;2023-08-20T12:14:57;4.70;;;2.70;;
69736;SDS011;64476;55.004;73.342;2023-08-20T12:18:03;3.80;;;1.33;;
69736;SDS011;64476;55.004;73.342;2023-08-20T12:21:06;4.28;;;1.60;;
69736;SDS011;64476;55.004;73.342;2023-08-20T12:24:10;13.73;;;1.58;;
69736;SDS011;64476;55.004;73.342;2023-08-20T12:27:12;3.65;;;1.50;;
69736;SDS011;64476;55.004;73.342;2023-08-20T12:30:18;41.97;;;3.97;;
69736;SDS011;64476;55.004;73.342;2023-08-20T12:33:22;23.92;;;1.90;;
69736;SDS011;64476;55.004;73.342;2023-08-20T12:36:25;4.18;;;1.73;;
69736;SDS011;64476;55.004;73.342;2023-08-20T12:39:27;6.40;;;2.10;;
69736;SDS011;64476;55.004;73.342;2023-08-20T12:42:29;10.50;;;2.72;;
69736;SDS011;64476;55.004;73.342;2023-08-20T12:45:31;3.05;;;1.73;;
69736;SDS011;64476;55.004;73.342;2023-08-20T12:48:38;5.03;;;1.77;;
69736;SDS011;64476;55.004;73.342;2023-08-20T12:51:40;5.40;;;2.42;;
69736;SDS011;64476;55.004;73.342;2023-08-20T12:54:42;13.20;;;2.83;;
69736;SDS011;64476;55.004;73.342;2023-08-20T12:57:53;6.90;;;2.15;;
69736;SDS011;64476;55.004;73.342;2023-08-20T13:00:57;6.65;;;2.20;;
69736;SDS011;64476;55.004;73.342;2023-08-20T13:14:42;3.40;;;2.70;;
69736;SDS011;64476;55.004;73.342;2023-08-20T13:21:18;4.80;;;2.47;;
69736;SDS011;64476;55.004;73.342;2023-08-20T13:24:24;6.72;;;2.20;;
69736;SDS011;64476;55.004;73.342;2023-08-20T13:27:26;5.88;;;2.42;;
69736;SDS011;64476;55.004;73.342;2023-08-20T13:30:27;5.27;;;2.07;;
69736;SDS011;64476;55.004;73.342;2023-08-20T13:33:29;3.33;;;2.55;;
69736;SDS011;64476;55.004;73.342;2023-08-20T13:36:31;16.92;;;3.70;;
69736;SDS011;64476;55.004;73.342;2023-08-20T13:40:11;4.35;;;2.70;;
69736;SDS011;64476;55.004;73.342;2023-08-20T13:43:45;10.37;;;2.87;;
69736;SDS011;64476;55.004;73.342;2023-08-20T13:46:46;11.50;;;3.50;;
69736;SDS011;64476;55.004;73.342;2023-08-20T13:49:50;8.20;;;2.80;;
69736;SDS011;64476;55.004;73.342;2023-08-20T13:52:52;14.68;;;2.85;;
69736;SDS011;64476;55.004;73.342;2023-08-20T13:55:54;15.35;;;3.03;;
69736;SDS011;64476;55.004;73.342;2023-08-20T13:58:56;8.73;;;2.50;;
69736;SDS011;64476;55.004;73.342;2023-08-20T14:01:58;4.50;;;2.50;;
69736;SDS011;64476;55.004;73.342;2023-08-20T14:05:00;10.73;;;2.92;;
69736;SDS011;64476;55.004;73.342;2023-08-20T14:08:04;22.17;;;4.20;;
69736;SDS011;64476;55.004;73.342;2023-08-20T14:11:06;16.90;;;3.53;;
69736;SDS011;64476;55.004;73.342;2023-08-20T14:14:07;14.15;;;4.00;;
69736;SDS011;64476;55.004;73.342;2023-08-20T14:17:09;10.68;;;4.40;;
69736;SDS011;64476;55.004;73.342;2023-08-20T14:20:11;25.33;;;4.60;;
69736;SDS011;64476;55.004;73.342;2023-08-20T14:23:22;7.53;;;4.01;;
69736;SDS011;64476;55.004;73.342;2023-08-20T14:26:26;15.68;;;4.00;;
69736;SDS011;64476;55.004;73.342;2023-08-20T14:29:28;17.35;;;4.68;;
69736;SDS011;64476;55.004;73.342;2023-08-20T14:36:39;19.40;;;4.10;;
69736;SDS011;64476;55.004;73.342;2023-08-20T14:39:41;14.83;;;3.70;;
69736;SDS011;64476;55.004;73.342;2023-08-20T14:42:43;17.38;;;4.00;;
69736;SDS011;64476;55.004;73.342;2023-08-20T14:45:45;18.13;;;4.35;;
69736;SDS011;64476;55.004;73.342;2023-08-20T14:48:47;18.17;;;3.70;;
69736;SDS011;64476;55.004;73.342;2023-08-20T14:51:49;10.75;;;3.78;;
69736;SDS011;64476;55.004;73.342;2023-08-20T14:54:50;9.40;;;2.70;;
69736;SDS011;64476;55.004;73.342;2023-08-20T14:57:53;16.50;;;3.72;;
69736;SDS011;64476;55.004;73.342;2023-08-20T15:00:55;12.10;;;3.08;;
69736;SDS011;64476;55.004;73.342;2023-08-20T15:03:57;9.23;;;3.13;;
69736;SDS011;64476;55.004;73.342;2023-08-20T15:06:58;16.45;;;4.47;;
69736;SDS011;64476;55.004;73.342;2023-08-20T15:10:00;9.85;;;4.55;;
69736;SDS011;64476;55.004;73.342;2023-08-20T15:16:39;19.05;;;5.45;;
69736;SDS011;64476;55.004;73.342;2023-08-20T15:19:41;13.52;;;4.85;;
69736;SDS011;64476;55.004;73.342;2023-08-20T15:22:43;13.38;;;4.55;;
69736;SDS011;64476;55.004;73.342;2023-08-20T15:29:18;5.95;;;3.33;;
69736;SDS011;64476;55.004;73.342;2023-08-20T15:32:20;8.35;;;3.42;;
69736;SDS011;64476;55.004;73.342;2023-08-20T15:35:22;11.55;;;2.97;;
69736;SDS011;64476;55.004;73.342;2023-08-20T15:38:24;8.65;;;3.97;;
69736;SDS011;64476;55.004;73.342;2023-08-20T15:41:26;18.05;;;4.10;;
69736;SDS011;64476;55.004;73.342;2023-08-20T15:44:28;9.95;;;3.75;;
69736;SDS011;64476;55.004;73.342;2023-08-20T15:47:30;12.75;;;3.20;;
69736;SDS011;64476;55.004;73.342;2023-08-20T15:51:03;18.63;;;2.40;;
69736;SDS011;64476;55.004;73.342;2023-08-20T15:54:05;10.25;;;2.55;;
69736;SDS011;64476;55.004;73.342;2023-08-20T15:57:07;4.55;;;2.25;;
69736;SDS011;64476;55.004;73.342;2023-08-20T16:00:09;4.88;;;2.13;;
69736;SDS011;64476;55.004;73.342;2023-08-20T16:03:22;7.07;;;2.30;;
69736;SDS011;64476;55.004;73.342;2023-08-20T16:06:24;11.20;;;2.40;;
69736;SDS011;64476;55.004;73.342;2023-08-20T16:09:26;4.82;;;2.00;;
69736;SDS011;64476;55.004;73.342;2023-08-20T16:12:28;12.68;;;2.38;;
69736;SDS011;64476;55.004;73.342;2023-08-20T16:15:29;13.63;;;2.10;;
69736;SDS011;64476;55.004;73.342;2023-08-20T16:18:31;6.15;;;2.30;;
69736;SDS011;64476;55.004;73.342;2023-08-20T16:22:04;9.45;;;2.58;;
69736;SDS011;64476;55.004;73.342;2023-08-20T16:25:10;8.73;;;2.65;;
69736;SDS011;64476;55.004;73.342;2023-08-20T16:28:12;5.57;;;2.25;;
69736;SDS011;64476;55.004;73.342;2023-08-20T16:31:15;11.13;;;2.92;;
69736;SDS011;64476;55.004;73.342;2023-08-20T16:34:16;12.05;;;2.63;;
69736;SDS011;64476;55.004;73.342;2023-08-20T16:37:18;9.40;;;2.80;;
69736;SDS011;64476;55.004;73.342;2023-08-20T16:40:20;7.43;;;2.63;;
69736;SDS011;64476;55.004;73.342;2023-08-20T16:43:23;6.12;;;2.68;;
69736;SDS011;64476;55.004;73.342;2023-08-20T16:46:25;7.97;;;2.45;;
69736;SDS011;64476;55.004;73.342;2023-08-20T16:49:26;15.75;;;2.90;;
69736;SDS011;64476;55.004;73.342;2023-08-20T16:52:29;3.22;;;2.75;;
69736;SDS011;64476;55.004;73.342;2023-08-20T16:55:32;10.27;;;3.33;;
69736;SDS011;64476;55.004;73.342;2023-08-20T16:58:34;5.13;;;2.70;;
69736;SDS011;64476;55.004;73.342;2023-08-20T17:01:36;11.75;;;3.97;;
69736;SDS011;64476;55.004;73.342;2023-08-20T17:04:37;15.03;;;3.03;;
69736;SDS011;64476;55.004;73.342;2023-08-20T17:07:39;18.60;;;3.58;;
69736;SDS011;64476;55.004;73.342;2023-08-20T17:10:41;19.38;;;3.30;;
69736;SDS011;64476;55.004;73.342;2023-08-20T17:13:42;6.47;;;1.95;;
69736;SDS011;64476;55.004;73.342;2023-08-20T17:16:44;5.10;;;2.15;;
69736;SDS011;64476;55.004;73.342;2023-08-20T17:19:46;9.90;;;1.95;;
69736;SDS011;64476;55.004;73.342;2023-08-20T17:22:47;4.40;;;1.98;;
69736;SDS011;64476;55.004;73.342;2023-08-20T17:25:49;1.60;;;1.50;;
69736;SDS011;64476;55.004;73.342;2023-08-20T17:28:55;10.50;;;2.00;;
69736;SDS011;64476;55.004;73.342;2023-08-20T17:31:56;5.80;;;1.60;;
69736;SDS011;64476;55.004;73.342;2023-08-20T17:34:58;6.35;;;1.83;;
69736;SDS011;64476;55.004;73.342;2023-08-20T17:38:03;4.90;;;1.98;;
69736;SDS011;64476;55.004;73.342;2023-08-20T17:41:06;1.88;;;1.70;;
69736;SDS011;64476;55.004;73.342;2023-08-20T17:44:07;9.23;;;2.00;;
69736;SDS011;64476;55.004;73.342;2023-08-20T17:47:09;3.20;;;2.10;;
69736;SDS011;64476;55.004;73.342;2023-08-20T17:50:11;4.45;;;2.10;;
69736;SDS011;64476;55.004;73.342;2023-08-20T17:53:25;13.43;;;2.32;;
69736;SDS011;64476;55.004;73.342;2023-08-20T17:56:27;9.77;;;2.20;;
69736;SDS011;64476;55.004;73.342;2023-08-20T17:59:29;3.63;;;2.03;;
69736;SDS011;64476;55.004;73.342;2023-08-20T18:02:31;15.07;;;2.08;;
69736;SDS011;64476;55.004;73.342;2023-08-20T18:05:36;4.90;;;2.30;;
69736;SDS011;64476;55.004;73.342;2023-08-20T18:11:41;9.63;;;2.58;;
69736;SDS011;64476;55.004;73.342;2023-08-20T18:14:43;4.00;;;2.00;;
69736;SDS011;64476;55.004;73.342;2023-08-20T18:17:45;7.43;;;2.67;;
69736;SDS011;64476;55.004;73.342;2023-08-20T18:20:46;6.68;;;2.40;;
69736;SDS011;64476;55.004;73.342;2023-08-20T18:23:48;4.23;;;2.30;;
69736;SDS011;64476;55.004;73.342;2023-08-20T18:26:50;6.80;;;2.70;;
69736;SDS011;64476;55.004;73.342;2023-08-20T18:29:53;8.35;;;2.47;;
69736;SDS011;64476;55.004;73.342;2023-08-20T18:32:55;10.75;;;2.85;;
69736;SDS011;64476;55.004;73.342;2023-08-20T18:35:57;6.25;;;3.28;;
69736;SDS011;64476;55.004;73.342;2023-08-20T18:39:05;4.30;;;3.03;;
69736;SDS011;64476;55.004;73.342;2023-08-20T18:42:10;7.32;;;3.15;;
69736;SDS011;64476;55.004;73.342;2023-08-20T18:45:12;3.80;;;2.67;;
69736;SDS011;64476;55.004;73.342;2023-08-20T18:48:23;10.88;;;2.99;;
69736;SDS011;64476;55.004;73.342;2023-08-20T18:51:24;7.93;;;2.70;;
69736;SDS011;64476;55.004;73.342;2023-08-20T18:54:26;6.70;;;3.20;;
69736;SDS011;64476;55.004;73.342;2023-08-20T18:57:29;4.93;;;2.67;;
69736;SDS011;64476;55.004;73.342;2023-08-20T19:00:31;4.47;;;2.70;;
69736;SDS011;64476;55.004;73.342;2023-08-20T19:03:36;19.13;;;2.78;;
69736;SDS011;64476;55.004;73.342;2023-08-20T19:06:42;6.90;;;2.55;;
69736;SDS011;64476;55.004;73.342;2023-08-20T19:09:45;3.72;;;2.50;;
69736;SDS011;64476;55.004;73.342;2023-08-20T19:12:47;4.78;;;2.55;;
69736;SDS011;64476;55.004;73.342;2023-08-20T19:15:49;7.50;;;2.53;;
69736;SDS011;64476;55.004;73.342;2023-08-20T19:18:51;4.13;;;2.20;;
69736;SDS011;64476;55.004;73.342;2023-08-20T19:21:52;4.95;;;2.13;;
69736;SDS011;64476;55.004;73.342;2023-08-20T19:24:54;2.28;;;2.03;;